createdAt,value
2018-09-04T00:00:37.637Z,3.7
2018-09-04T00:10:47.763Z,4.1
2018-09-04T00:20:53.951Z,3
2018-09-04T00:30:59.237Z,4
2018-09-04T00:41:07.932Z,4
2018-09-04T00:51:16.759Z,3.2
2018-09-04T01:01:25.918Z,6.2
2018-09-04T01:11:34.620Z,4.1
2018-09-04T01:21:43.664Z,3.7
2018-09-04T01:32:02.842Z,4.6
2018-09-04T01:42:16.150Z,5.6
2018-09-04T01:52:51.812Z,3.8
2018-09-04T02:03:15.172Z,3.5
2018-09-04T02:13:27.037Z,4.1
2018-09-04T02:23:37.581Z,3.2
2018-09-04T02:33:46.355Z,7.6
2018-09-04T02:43:57.794Z,3.1
2018-09-04T02:54:12.245Z,2.9
2018-09-04T03:04:16.710Z,3.6
2018-09-04T03:14:32.002Z,4.2
2018-09-04T03:24:34.663Z,4
2018-09-04T03:34:47.108Z,4.3
2018-09-04T03:44:52.730Z,4.3
2018-09-04T03:54:59.874Z,3.8
2018-09-04T04:05:09.629Z,4
2018-09-04T04:15:28.775Z,4.4
2018-09-04T04:25:43.764Z,4.7
2018-09-04T04:36:01.513Z,4.5
2018-09-04T04:46:20.654Z,4.4
2018-09-04T04:56:35.105Z,4.5
2018-09-04T05:06:51.363Z,4.1
2018-09-04T05:16:53.433Z,3.6
2018-09-04T05:27:03.908Z,3.7
2018-09-04T05:37:17.768Z,4.7
2018-09-04T05:47:18.588Z,4.2
2018-09-04T05:57:24.456Z,4.4
2018-09-04T06:07:31.027Z,4.4
2018-09-04T06:17:34.209Z,3
2018-09-04T06:27:34.941Z,4
2018-09-04T06:37:40.004Z,3.6
2018-09-04T06:47:52.547Z,4.2
2018-09-04T06:57:52.670Z,4.4
2018-09-04T07:07:52.879Z,8.4
2018-09-04T07:17:53.905Z,3.7
2018-09-04T07:27:54.662Z,4
2018-09-04T07:37:54.959Z,5.8
2018-09-04T07:47:54.989Z,4.9
2018-09-04T07:57:54.766Z,4.2
2018-09-04T08:07:55.695Z,5.6
2018-09-04T08:18:20.984Z,5.7
2018-09-04T08:28:25.651Z,5.6
2018-09-04T08:38:26.699Z,6.3
2018-09-04T08:48:43.257Z,6
2018-09-04T08:58:56.431Z,7.1
2018-09-04T09:09:19.385Z,6.3
2018-09-04T09:19:55.405Z,11.9
2018-09-04T09:30:31.244Z,6.6
2018-09-04T09:40:46.906Z,5.6
2018-09-04T09:51:15.541Z,5.7
2018-09-04T10:01:44.470Z,5.9
2018-09-04T10:12:26.923Z,6.2
2018-09-04T10:22:56.551Z,4.5
2018-09-04T10:33:15.430Z,4.4
2018-09-04T10:44:07.002Z,5.5
2018-09-04T10:55:06.236Z,4.9
2018-09-04T11:05:30.376Z,8.5
2018-09-04T11:15:47.265Z,8.7
2018-09-04T11:26:42.352Z,8.3
2018-09-04T11:37:17.397Z,12.6
2018-09-04T11:47:52.472Z,10.8
2018-09-04T11:58:37.600Z,12.9
2018-09-04T12:09:00.865Z,13.2
2018-09-04T12:19:21.828Z,13.1
2018-09-04T12:30:08.005Z,12.7
2018-09-04T12:41:19.085Z,13.3
2018-09-04T12:52:05.320Z,11.6
2018-09-04T13:02:52.759Z,13.3
2018-09-04T13:13:25.211Z,11.3
2018-09-04T13:23:25.441Z,11.4
2018-09-04T13:33:25.318Z,12.5
2018-09-04T13:43:25.076Z,16.2
2018-09-04T13:53:24.769Z,16.4
2018-09-04T14:03:24.811Z,16.4
2018-09-04T14:13:24.460Z,16.5
2018-09-04T14:23:25.903Z,17.3
2018-09-04T14:34:45.925Z,14.1
2018-09-04T14:45:06.154Z,13.2
2018-09-04T14:55:43.262Z,15.2
2018-09-04T15:05:42.826Z,16.1
2018-09-04T15:15:51.959Z,12.2
2018-09-04T15:25:54.596Z,13.2
2018-09-04T15:36:12.401Z,14.8
2018-09-04T15:46:30.959Z,12
2018-09-04T15:56:59.157Z,14.2
2018-09-04T16:07:17.805Z,15.2
2018-09-04T16:17:40.316Z,13.8
2018-09-04T16:27:46.846Z,11.7
2018-09-04T16:37:48.103Z,13.1
2018-09-04T16:47:58.557Z,11.8
2018-09-04T16:58:05.507Z,10.2
2018-09-04T17:08:23.279Z,12.6
2018-09-04T17:18:24.895Z,15.6
2018-09-04T17:28:26.955Z,13
2018-09-04T17:38:31.868Z,9.7
2018-09-04T17:48:42.525Z,17.2
2018-09-04T17:58:43.483Z,34.3
2018-09-04T18:08:46.844Z,16.8
2018-09-04T18:18:48.642Z,15.3
2018-09-04T18:28:49.979Z,20.8
2018-09-04T18:38:52.314Z,14.7
2018-09-04T18:48:55.504Z,14.8
2018-09-04T18:58:57.306Z,15.2
2018-09-04T19:08:58.760Z,14
2018-09-04T19:18:58.578Z,13.1
2018-09-04T19:28:58.342Z,12.3
2018-09-04T19:38:59.612Z,18.5
2018-09-04T19:48:59.322Z,18.5
2018-09-04T19:59:00.633Z,17.9
2018-09-04T20:09:00.943Z,16.7
2018-09-04T20:19:01.438Z,17.1
2018-09-04T20:29:01.371Z,16.5
2018-09-04T20:39:01.957Z,16.5
2018-09-04T20:49:04.387Z,13.8
2018-09-04T20:59:04.072Z,12.7
2018-09-04T21:09:05.325Z,12.5
2018-09-04T21:19:16.832Z,9.8
2018-09-04T21:29:31.327Z,9.4
2018-09-04T21:39:45.487Z,8.9
2018-09-04T21:50:16.137Z,10.3
2018-09-04T22:00:38.617Z,10.3
2018-09-04T22:10:49.554Z,9.1
2018-09-04T22:21:16.020Z,7.9
2018-09-04T22:31:36.081Z,8.7
2018-09-04T22:41:49.976Z,8.1
2018-09-04T22:52:04.846Z,6.7
2018-09-04T23:02:13.298Z,7.7
2018-09-04T23:12:26.916Z,6.4
2018-09-04T23:22:53.874Z,6.8
2018-09-04T23:32:58.925Z,6.2
2018-09-04T23:43:11.494Z,6.3
2018-09-04T23:53:28.334Z,6.3
